createdAt,value
2023-03-03T00:00:38.540Z,74.85
2023-03-03T00:02:43.992Z,71.03
2023-03-03T00:04:48.901Z,80.82
2023-03-03T00:06:53.867Z,79.82
2023-03-03T00:08:59.123Z,71.30
2023-03-03T00:11:06.210Z,66.10
2023-03-03T00:13:19.213Z,69.00
2023-03-03T00:15:27.141Z,65.47
2023-03-03T00:17:36.525Z,72.28
2023-03-03T00:19:47.362Z,63.58
2023-03-03T00:21:53.830Z,58.53
2023-03-03T00:24:23.821Z,65.43
2023-03-03T00:26:37.405Z,67.38
2023-03-03T00:28:49.151Z,66.30
2023-03-03T00:30:55.511Z,72.50
2023-03-03T00:33:02.979Z,63.63
2023-03-03T00:35:28.819Z,67.70
2023-03-03T00:37:37.605Z,63.67
2023-03-03T00:39:42.622Z,67.60
2023-03-03T00:41:48.345Z,74.43
2023-03-03T00:43:54.628Z,82.32
2023-03-03T00:46:01.015Z,78.93
2023-03-03T00:48:29.634Z,74.03
2023-03-03T00:50:37.663Z,65.72
2023-03-03T00:52:47.949Z,70.80
2023-03-03T00:54:52.876Z,68.68
2023-03-03T00:56:57.781Z,69.32
2023-03-03T00:59:03.214Z,71.07
2023-03-03T01:01:08.792Z,72.88
2023-03-03T01:03:26.613Z,70.40
2023-03-03T01:05:32.534Z,70.03
2023-03-03T01:07:37.776Z,68.53
2023-03-03T01:09:42.981Z,59.92
2023-03-03T01:11:47.908Z,53.38
2023-03-03T01:13:55.270Z,46.03
2023-03-03T01:16:00.868Z,47.00
2023-03-03T01:18:06.882Z,43.25
2023-03-03T01:20:18.229Z,45.60
2023-03-03T01:22:23.416Z,49.70
2023-03-03T01:24:28.694Z,42.33
2023-03-03T01:26:33.591Z,40.92
2023-03-03T01:28:39.388Z,44.25
2023-03-03T01:30:44.325Z,42.80
2023-03-03T01:32:50.992Z,46.88
2023-03-03T01:34:57.417Z,55.15
2023-03-03T01:37:08.549Z,49.80
2023-03-03T01:39:14.445Z,57.72
2023-03-03T01:41:20.262Z,69.68
2023-03-03T01:43:26.635Z,68.90
2023-03-03T01:45:34.230Z,68.20
2023-03-03T01:47:40.007Z,66.15
2023-03-03T01:49:52.443Z,64.82
2023-03-03T01:52:01.131Z,52.78
2023-03-03T01:54:15.154Z,44.35
2023-03-03T01:56:21.026Z,47.42
2023-03-03T01:58:31.955Z,42.60
2023-03-03T02:00:39.426Z,41.33
2023-03-03T02:02:45.872Z,41.20
2023-03-03T02:04:53.239Z,52.78
2023-03-03T02:07:04.378Z,50.78
2023-03-03T02:09:21.510Z,45.80
2023-03-03T02:11:27.231Z,51.15
2023-03-03T02:13:32.133Z,51.25
2023-03-03T02:15:38.635Z,72.30
2023-03-03T02:17:44.010Z,72.38
2023-03-03T02:19:58.414Z,74.05
2023-03-03T02:22:06.334Z,68.30
2023-03-03T02:24:26.981Z,88.03
2023-03-03T02:26:38.992Z,105.45
2023-03-03T02:28:46.738Z,119.57
2023-03-03T02:30:51.885Z,122.75
2023-03-03T02:32:56.776Z,125.80
2023-03-03T02:35:01.687Z,135.18
2023-03-03T02:37:08.259Z,141.38
2023-03-03T02:39:20.978Z,147.65
2023-03-03T02:41:39.395Z,140.23
2023-03-03T02:43:56.308Z,127.25
2023-03-03T02:46:02.828Z,142.32
2023-03-03T02:48:08.629Z,142.98
2023-03-03T02:50:14.719Z,141.80
2023-03-03T02:52:19.599Z,147.63
2023-03-03T02:54:30.585Z,131.07
2023-03-03T02:56:39.312Z,132.43
2023-03-03T02:58:44.640Z,133.07
2023-03-03T03:00:50.784Z,133.77
2023-03-03T03:03:00.446Z,132.57
2023-03-03T03:05:06.124Z,122.03
2023-03-03T03:07:11.877Z,126.38
2023-03-03T03:09:19.013Z,127.32
2023-03-03T03:11:25.428Z,124.35
2023-03-03T03:13:33.120Z,120.03
2023-03-03T03:15:39.290Z,122.03
2023-03-03T03:17:44.622Z,127.03
2023-03-03T03:19:50.614Z,116.80
2023-03-03T03:21:55.538Z,119.15
2023-03-03T03:24:01.137Z,104.20
2023-03-03T03:26:09.986Z,112.00
2023-03-03T03:30:27.357Z,114.80
2023-03-03T03:32:32.704Z,112.10
2023-03-03T03:34:39.043Z,103.15
2023-03-03T03:36:47.324Z,109.78
2023-03-03T03:38:54.353Z,98.78
2023-03-03T03:41:01.116Z,103.53
2023-03-03T03:43:06.076Z,100.18
2023-03-03T03:45:15.336Z,103.20
2023-03-03T03:47:27.052Z,103.68
2023-03-03T03:49:33.275Z,104.70
2023-03-03T03:51:41.650Z,97.35
2023-03-03T03:53:49.874Z,103.40
2023-03-03T03:55:55.289Z,101.05
2023-03-03T03:58:00.441Z,105.28
2023-03-03T04:00:07.747Z,95.95
2023-03-03T04:02:18.800Z,106.13
2023-03-03T04:04:26.797Z,102.75
2023-03-03T04:06:32.505Z,101.85
2023-03-03T04:08:37.665Z,98.70
2023-03-03T04:10:43.140Z,99.72
2023-03-03T04:12:49.756Z,101.60
2023-03-03T04:14:56.006Z,94.70
2023-03-03T04:17:00.983Z,95.60
2023-03-03T04:19:05.998Z,101.85
2023-03-03T04:21:18.534Z,100.93
2023-03-03T04:23:25.587Z,98.78
2023-03-03T04:25:31.760Z,97.93
2023-03-03T04:27:37.756Z,90.63
2023-03-03T04:29:43.849Z,93.68
2023-03-03T04:31:49.744Z,94.63
2023-03-03T04:33:56.953Z,91.57
2023-03-03T04:36:02.645Z,93.20
2023-03-03T04:38:10.924Z,99.43
2023-03-03T04:40:18.311Z,103.63
2023-03-03T04:42:23.247Z,90.57
2023-03-03T04:44:28.664Z,94.75
2023-03-03T04:46:33.782Z,97.97
2023-03-03T04:48:39.677Z,102.03
2023-03-03T04:50:46.341Z,93.85
2023-03-03T04:52:51.741Z,107.28
2023-03-03T04:55:00.241Z,90.70
2023-03-03T04:57:06.395Z,104.25
2023-03-03T04:59:11.861Z,93.70
2023-03-03T05:01:18.629Z,92.30
2023-03-03T05:03:25.662Z,95.07
2023-03-03T05:05:30.606Z,90.97
2023-03-03T05:07:36.249Z,83.13
2023-03-03T05:09:41.287Z,90.70
2023-03-03T05:11:48.751Z,88.78
2023-03-03T05:13:54.153Z,92.65
2023-03-03T05:16:00.143Z,93.88
2023-03-03T05:18:05.203Z,90.20
2023-03-03T05:20:13.889Z,89.43
2023-03-03T05:22:19.008Z,102.68
2023-03-03T05:24:23.996Z,88.53
2023-03-03T05:26:28.998Z,98.35
2023-03-03T05:28:36.839Z,91.30
2023-03-03T05:30:42.136Z,86.32
2023-03-03T05:32:47.481Z,92.25
2023-03-03T05:34:52.603Z,101.40
2023-03-03T05:36:57.866Z,102.85
2023-03-03T05:39:02.792Z,92.63
2023-03-03T05:41:08.264Z,95.13
2023-03-03T05:43:13.576Z,95.07
2023-03-03T05:45:24.309Z,91.43
2023-03-03T05:47:29.603Z,89.70
2023-03-03T05:49:34.927Z,91.45
2023-03-03T05:51:40.104Z,85.70
2023-03-03T05:53:45.815Z,88.15
2023-03-03T05:55:50.692Z,89.85
2023-03-03T05:57:56.336Z,87.25
2023-03-03T06:00:01.291Z,84.10
2023-03-03T06:02:08.802Z,80.07
2023-03-03T06:04:14.389Z,90.78
2023-03-03T06:06:19.336Z,78.88
2023-03-03T06:08:24.330Z,81.20
2023-03-03T06:10:30.275Z,86.57
2023-03-03T06:12:39.173Z,89.80
2023-03-03T06:14:44.130Z,80.70
2023-03-03T06:16:49.073Z,87.90
2023-03-03T06:18:56.632Z,83.43
2023-03-03T06:21:01.665Z,86.93
2023-03-03T06:23:07.233Z,79.57
2023-03-03T06:25:13.765Z,89.03
2023-03-03T06:27:19.879Z,74.18
2023-03-03T06:29:25.052Z,73.22
2023-03-03T06:31:30.731Z,69.65
2023-03-03T06:33:36.217Z,75.28
2023-03-03T06:35:44.742Z,76.93
2023-03-03T06:37:50.961Z,77.07
2023-03-03T06:39:55.927Z,68.65
2023-03-03T06:42:01.035Z,63.40
2023-03-03T06:44:06.175Z,67.22
2023-03-03T06:46:12.511Z,67.85
2023-03-03T06:48:17.475Z,70.10
2023-03-03T06:50:24.616Z,67.05
2023-03-03T06:52:32.354Z,69.03
2023-03-03T06:54:37.503Z,69.78
2023-03-03T06:56:44.969Z,61.78
2023-03-03T06:58:49.958Z,62.90
2023-03-03T07:01:00.013Z,63.30
2023-03-03T07:03:15.429Z,66.05
2023-03-03T07:05:21.836Z,62.63
2023-03-03T07:07:33.410Z,62.42
2023-03-03T07:09:38.543Z,62.58
2023-03-03T07:11:46.589Z,64.47
2023-03-03T07:13:55.876Z,61.40
2023-03-03T07:16:12.766Z,53.00
2023-03-03T07:18:40.381Z,58.47
2023-03-03T07:20:46.899Z,65.07
2023-03-03T07:22:56.033Z,49.88
2023-03-03T07:25:04.932Z,53.60
2023-03-03T07:27:18.765Z,51.53
2023-03-03T07:29:30.638Z,52.35
2023-03-03T07:31:44.618Z,52.03
2023-03-03T07:33:51.231Z,55.25
2023-03-03T07:35:59.397Z,58.67
2023-03-03T07:38:20.359Z,49.78
2023-03-03T07:40:39.554Z,50.70
2023-03-03T07:42:45.945Z,52.25
2023-03-03T07:45:05.644Z,53.42
2023-03-03T07:47:23.732Z,49.67
2023-03-03T07:49:38.326Z,54.97
2023-03-03T07:51:45.156Z,57.42
2023-03-03T07:53:54.926Z,54.03
2023-03-03T07:56:01.022Z,55.38
2023-03-03T07:58:27.093Z,54.47
2023-03-03T08:01:30.331Z,51.75
2023-03-03T08:03:40.230Z,45.45
2023-03-03T08:05:46.891Z,46.53
2023-03-03T08:07:54.546Z,44.03
2023-03-03T08:10:04.454Z,46.58
2023-03-03T08:12:39.023Z,44.17
2023-03-03T08:14:46.366Z,42.85
2023-03-03T08:16:52.318Z,40.28
2023-03-03T08:19:01.703Z,37.90
2023-03-03T08:21:12.049Z,38.70
2023-03-03T08:23:23.202Z,42.30
2023-03-03T08:25:32.284Z,35.80
2023-03-03T08:27:37.700Z,38.65
2023-03-03T08:29:43.103Z,38.50
2023-03-03T08:31:49.558Z,34.38
2023-03-03T08:33:55.106Z,36.50
2023-03-03T08:36:02.118Z,36.38
2023-03-03T08:38:09.331Z,33.28
2023-03-03T08:40:16.072Z,28.58
2023-03-03T08:42:24.613Z,33.10
2023-03-03T08:44:29.959Z,32.55
2023-03-03T08:46:36.266Z,34.33
2023-03-03T08:48:41.607Z,34.30
2023-03-03T08:50:47.322Z,30.15
2023-03-03T08:52:53.035Z,34.80
2023-03-03T08:54:58.520Z,32.25
2023-03-03T08:57:03.430Z,38.63
2023-03-03T08:59:11.557Z,37.55
2023-03-03T09:01:18.323Z,44.35
2023-03-03T09:03:23.259Z,41.33
2023-03-03T09:05:28.952Z,41.75
2023-03-03T09:07:33.969Z,39.80
2023-03-03T09:09:40.485Z,42.35
2023-03-03T09:11:45.376Z,43.78
2023-03-03T09:13:53.599Z,42.58
2023-03-03T09:16:02.009Z,41.88
2023-03-03T09:18:18.697Z,41.08
2023-03-03T09:20:38.232Z,41.63
2023-03-03T09:22:43.197Z,41.95
2023-03-03T09:24:51.169Z,39.97
2023-03-03T09:26:58.599Z,43.83
2023-03-03T09:29:20.932Z,45.00
2023-03-03T09:31:39.312Z,36.10
2023-03-03T09:33:46.999Z,40.58
2023-03-03T09:35:56.699Z,35.20
2023-03-03T09:38:02.287Z,39.85
2023-03-03T09:40:43.048Z,40.53
2023-03-03T09:43:06.161Z,37.60
2023-03-03T09:45:42.470Z,36.47
2023-03-03T09:48:16.471Z,33.63
2023-03-03T09:50:39.017Z,35.85
2023-03-03T09:52:51.631Z,33.40
2023-03-03T09:55:13.699Z,25.65
2023-03-03T09:57:26.374Z,36.35
2023-03-03T09:59:47.489Z,35.50
2023-03-03T10:02:10.855Z,35.92
2023-03-03T10:04:59.946Z,32.75
2023-03-03T10:07:29.084Z,39.08
2023-03-03T10:10:01.188Z,36.03
2023-03-03T10:12:17.470Z,32.08
2023-03-03T10:14:56.084Z,31.65
2023-03-03T10:17:12.423Z,34.95
2023-03-03T10:19:45.704Z,29.90
2023-03-03T10:21:58.432Z,31.67
2023-03-03T10:24:18.488Z,30.92
2023-03-03T10:26:45.604Z,37.58
2023-03-03T10:29:25.464Z,34.15
2023-03-03T10:31:48.607Z,30.75
2023-03-03T10:34:07.034Z,27.67
2023-03-03T10:36:35.024Z,33.05
2023-03-03T10:38:58.622Z,29.63
2023-03-03T10:41:30.110Z,29.63
2023-03-03T10:43:56.963Z,34.55
2023-03-03T10:46:28.439Z,28.65
2023-03-03T10:49:04.942Z,34.05
2023-03-03T10:51:29.306Z,34.33
2023-03-03T10:53:41.507Z,31.77
2023-03-03T10:55:57.808Z,44.17
2023-03-03T10:58:35.399Z,32.72
2023-03-03T11:00:47.390Z,30.60
2023-03-03T11:03:40.812Z,33.38
2023-03-03T11:05:51.004Z,32.00
2023-03-03T11:08:03.262Z,34.83
2023-03-03T11:10:30.953Z,31.43
2023-03-03T11:12:50.241Z,30.77
2023-03-03T11:15:18.390Z,32.38
2023-03-03T11:17:34.514Z,31.85
2023-03-03T11:20:01.179Z,27.83
2023-03-03T11:22:21.266Z,28.83
2023-03-03T11:24:52.361Z,30.05
2023-03-03T11:27:29.537Z,25.58
2023-03-03T11:29:53.513Z,25.92
2023-03-03T11:32:02.520Z,26.95
2023-03-03T11:34:21.957Z,29.27
2023-03-03T11:36:35.212Z,29.70
2023-03-03T11:38:56.611Z,24.35
2023-03-03T11:41:10.270Z,26.90
2023-03-03T11:45:46.692Z,24.25
2023-03-03T11:48:03.569Z,28.77
2023-03-03T11:50:19.051Z,25.95
2023-03-03T11:52:36.422Z,24.67
2023-03-03T11:54:52.186Z,27.55
2023-03-03T11:57:16.892Z,33.88
2023-03-03T11:59:50.667Z,27.65
2023-03-03T12:04:07.147Z,24.40
2023-03-03T12:06:26.452Z,23.15
2023-03-03T12:08:48.233Z,24.13
2023-03-03T12:11:03.882Z,17.10
2023-03-03T12:13:24.270Z,25.23
2023-03-03T12:15:40.184Z,23.75
2023-03-03T12:18:29.127Z,21.08
2023-03-03T12:20:42.566Z,19.38
2023-03-03T12:23:06.412Z,23.63
2023-03-03T12:25:28.145Z,20.13
2023-03-03T12:27:43.082Z,22.13
2023-03-03T12:30:06.392Z,22.33
2023-03-03T12:32:24.592Z,24.33
2023-03-03T12:34:39.968Z,22.35
2023-03-03T12:37:06.760Z,24.60
2023-03-03T12:39:34.045Z,22.73
2023-03-03T12:41:49.088Z,23.27
2023-03-03T12:44:03.680Z,24.48
2023-03-03T12:46:28.467Z,22.52
2023-03-03T12:48:44.108Z,24.73
2023-03-03T12:51:07.154Z,22.25
2023-03-03T12:53:27.193Z,20.58
2023-03-03T12:55:46.433Z,20.40
2023-03-03T12:58:01.653Z,21.98
2023-03-03T13:00:27.323Z,20.38
2023-03-03T13:02:46.393Z,20.50
2023-03-03T13:04:59.988Z,17.15
2023-03-03T13:07:13.937Z,18.75
2023-03-03T13:09:35.429Z,18.40
2023-03-03T13:11:56.582Z,17.70
2023-03-03T13:14:14.393Z,16.75
2023-03-03T13:16:40.676Z,18.38
2023-03-03T13:18:59.164Z,16.42
2023-03-03T13:21:13.537Z,18.60
2023-03-03T13:23:33.934Z,16.45
2023-03-03T13:25:56.266Z,17.05
2023-03-03T13:28:08.840Z,16.50
2023-03-03T13:30:22.994Z,17.30
2023-03-03T13:32:39.731Z,15.80
2023-03-03T13:34:59.085Z,14.50
2023-03-03T13:37:11.067Z,16.90
2023-03-03T13:39:24.890Z,15.10
2023-03-03T13:41:39.100Z,12.40
2023-03-03T13:43:52.370Z,16.00
2023-03-03T13:48:40.236Z,15.85
2023-03-03T13:50:54.348Z,18.02
2023-03-03T13:53:22.890Z,15.65
2023-03-03T13:55:36.070Z,14.95
2023-03-03T14:00:23.739Z,16.55
2023-03-03T14:03:11.493Z,13.57
2023-03-03T14:05:20.287Z,15.00
2023-03-03T14:07:37.049Z,16.17
2023-03-03T14:09:56.949Z,15.23
2023-03-03T14:12:12.030Z,16.77
2023-03-03T14:14:40.168Z,17.30
2023-03-03T14:16:54.511Z,15.63
2023-03-03T14:19:05.350Z,14.60
2023-03-03T14:21:17.524Z,15.68
2023-03-03T14:23:34.043Z,15.13
2023-03-03T14:25:59.166Z,12.38
2023-03-03T14:28:14.150Z,14.43
2023-03-03T14:30:36.226Z,14.05
2023-03-03T14:32:45.605Z,15.30
2023-03-03T14:35:01.334Z,14.75
2023-03-03T14:37:26.494Z,13.27
2023-03-03T14:39:38.865Z,17.98
2023-03-03T14:41:45.564Z,13.32
2023-03-03T14:44:02.737Z,12.98
2023-03-03T14:46:41.937Z,12.90
2023-03-03T14:48:55.157Z,12.35
2023-03-03T14:51:04.779Z,13.68
2023-03-03T14:53:22.853Z,15.35
2023-03-03T14:55:42.222Z,13.88
2023-03-03T14:57:48.973Z,13.65
2023-03-03T15:00:11.020Z,14.73
2023-03-03T15:02:37.673Z,15.25
2023-03-03T15:04:43.224Z,13.73
2023-03-03T15:06:51.199Z,12.70
2023-03-03T15:08:56.573Z,12.93
2023-03-03T15:11:23.080Z,13.00
2023-03-03T15:13:37.935Z,13.52
2023-03-03T15:15:55.165Z,16.48
2023-03-03T15:18:04.550Z,15.05
2023-03-03T15:20:45.250Z,12.82
2023-03-03T15:22:53.756Z,13.45
2023-03-03T15:25:06.832Z,13.00
2023-03-03T15:27:21.995Z,17.33
2023-03-03T15:29:33.229Z,14.27
2023-03-03T15:31:47.396Z,13.30
2023-03-03T15:34:12.828Z,15.77
2023-03-03T15:36:29.429Z,15.18
2023-03-03T15:38:52.848Z,15.40
2023-03-03T15:41:11.484Z,16.17
2023-03-03T15:43:29.910Z,13.68
2023-03-03T15:45:41.502Z,15.05
2023-03-03T15:48:19.449Z,15.73
2023-03-03T15:50:48.449Z,14.85
2023-03-03T15:53:05.496Z,14.55
2023-03-03T15:55:30.640Z,12.63
2023-03-03T15:57:50.821Z,12.27
2023-03-03T16:00:16.252Z,15.15
2023-03-03T16:02:25.144Z,15.48
2023-03-03T16:04:37.340Z,12.40
2023-03-03T16:06:52.928Z,15.43
2023-03-03T16:09:05.469Z,14.07
2023-03-03T16:11:18.927Z,13.18
2023-03-03T16:13:35.336Z,15.52
2023-03-03T16:16:07.924Z,12.52
2023-03-03T16:18:26.056Z,12.07
2023-03-03T16:20:40.668Z,12.73
2023-03-03T16:23:04.241Z,14.20
2023-03-03T16:32:27.205Z,15.40
2023-03-03T16:34:40.424Z,12.65
2023-03-03T16:37:03.357Z,13.27
2023-03-03T16:41:29.600Z,12.63
2023-03-03T16:43:47.118Z,16.38
2023-03-03T16:45:52.539Z,12.52
2023-03-03T16:48:25.877Z,14.45
2023-03-03T16:50:44.416Z,16.05
2023-03-03T16:53:00.685Z,14.75
2023-03-03T16:55:15.742Z,15.15
2023-03-03T16:57:30.551Z,11.07
2023-03-03T16:59:49.287Z,13.18
2023-03-03T17:02:04.202Z,17.08
2023-03-03T17:04:21.600Z,16.27
2023-03-03T17:06:41.116Z,16.92
2023-03-03T17:09:32.148Z,16.58
2023-03-03T17:12:01.185Z,22.98
2023-03-03T17:14:34.887Z,16.25
2023-03-03T17:16:52.612Z,21.13
2023-03-03T17:19:12.445Z,20.58
2023-03-03T17:21:32.014Z,18.13
2023-03-03T17:23:52.796Z,18.83
2023-03-03T17:26:12.658Z,21.15
2023-03-03T17:28:37.328Z,16.90
2023-03-03T17:30:49.599Z,19.88
2023-03-03T17:33:15.993Z,23.10
2023-03-03T17:35:38.737Z,19.30
2023-03-03T17:40:16.684Z,21.00
2023-03-03T17:42:34.654Z,19.83
2023-03-03T17:44:47.313Z,18.83
2023-03-03T17:46:56.786Z,21.73
2023-03-03T17:49:38.633Z,25.75
2023-03-03T17:52:34.603Z,23.30
2023-03-03T17:55:14.777Z,21.80
2023-03-03T17:57:41.207Z,24.42
2023-03-03T18:00:06.047Z,22.42
2023-03-03T18:03:22.290Z,21.15
2023-03-03T18:05:58.306Z,19.50
2023-03-03T18:08:20.791Z,24.67
2023-03-03T18:11:13.394Z,24.83
2023-03-03T18:16:12.465Z,24.75
2023-03-03T18:18:44.176Z,23.75
2023-03-03T18:21:05.561Z,28.92
2023-03-03T18:23:35.166Z,25.50
2023-03-03T18:25:58.711Z,22.20
2023-03-03T18:28:25.797Z,26.23
2023-03-03T18:30:35.291Z,24.30
2023-03-03T18:32:48.209Z,21.70
2023-03-03T18:35:25.871Z,24.05
2023-03-03T18:37:42.949Z,21.85
2023-03-03T18:39:50.141Z,25.60
2023-03-03T18:42:37.736Z,27.08
2023-03-03T18:44:48.315Z,26.02
2023-03-03T18:46:58.887Z,23.20
2023-03-03T18:49:09.091Z,32.30
2023-03-03T18:51:14.046Z,24.02
2023-03-03T18:53:30.034Z,26.95
2023-03-03T18:55:43.578Z,27.67
2023-03-03T18:58:33.354Z,29.30
2023-03-03T19:00:55.074Z,26.00
2023-03-03T19:03:02.506Z,38.08
2023-03-03T19:05:23.417Z,27.77
2023-03-03T19:07:32.104Z,27.20
2023-03-03T19:09:57.312Z,31.35
2023-03-03T19:12:02.495Z,27.63
2023-03-03T19:14:34.284Z,28.58
2023-03-03T19:16:42.467Z,29.58
2023-03-03T19:19:07.252Z,30.80
2023-03-03T19:21:25.064Z,24.73
2023-03-03T19:23:59.833Z,33.33
2023-03-03T19:26:38.742Z,29.90
2023-03-03T19:28:52.320Z,28.70
2023-03-03T19:31:00.664Z,31.15
2023-03-03T19:33:45.620Z,31.80
2023-03-03T19:36:42.717Z,30.15
2023-03-03T19:39:05.245Z,33.22
2023-03-03T19:41:26.857Z,34.05
2023-03-03T19:43:46.426Z,33.90
2023-03-03T19:46:06.142Z,33.25
2023-03-03T19:48:29.749Z,34.42
2023-03-03T19:50:52.505Z,30.48
2023-03-03T19:53:10.362Z,32.15
2023-03-03T19:55:29.117Z,29.40
2023-03-03T19:57:48.891Z,26.70
2023-03-03T20:00:01.118Z,30.75
2023-03-03T20:02:39.902Z,32.30
2023-03-03T20:05:13.222Z,32.83
2023-03-03T20:07:31.349Z,34.10
2023-03-03T20:09:44.614Z,33.35
2023-03-03T20:12:04.814Z,34.03
2023-03-03T20:14:32.057Z,34.90
2023-03-03T20:16:42.821Z,30.85
2023-03-03T20:19:23.065Z,37.28
2023-03-03T20:21:46.840Z,44.13
2023-03-03T20:24:07.547Z,47.80
2023-03-03T20:26:25.121Z,47.03
2023-03-03T20:29:07.419Z,54.30
2023-03-03T20:31:22.412Z,43.22
2023-03-03T20:33:48.439Z,43.00
2023-03-03T20:36:07.145Z,36.55
2023-03-03T20:38:25.754Z,46.92
2023-03-03T20:40:38.579Z,42.72
2023-03-03T20:42:54.844Z,44.47
2023-03-03T20:45:32.629Z,40.75
2023-03-03T20:47:51.891Z,38.58
2023-03-03T20:50:19.641Z,39.60
2023-03-03T20:52:38.661Z,39.35
2023-03-03T20:54:54.674Z,37.90
2023-03-03T20:57:09.840Z,40.88
2023-03-03T20:59:26.908Z,40.38
2023-03-03T21:01:43.409Z,38.63
2023-03-03T21:03:48.672Z,44.03
2023-03-03T21:06:01.139Z,38.28
2023-03-03T21:08:08.521Z,36.23
2023-03-03T21:10:24.030Z,39.03
2023-03-03T21:12:33.375Z,34.28
2023-03-03T21:14:39.541Z,35.38
2023-03-03T21:16:44.595Z,44.35
2023-03-03T21:19:00.249Z,32.83
2023-03-03T21:21:06.359Z,41.90
2023-03-03T21:23:13.092Z,41.72
2023-03-03T21:25:52.099Z,40.45
2023-03-03T21:28:16.073Z,41.42
2023-03-03T21:30:21.912Z,42.97
2023-03-03T21:32:40.405Z,49.63
2023-03-03T21:34:45.906Z,43.63
2023-03-03T21:36:52.229Z,50.75
2023-03-03T21:38:59.082Z,55.53
2023-03-03T21:41:07.946Z,52.78
2023-03-03T21:43:36.232Z,53.70
2023-03-03T21:45:42.331Z,60.53
2023-03-03T21:47:47.363Z,52.55
2023-03-03T21:49:54.281Z,53.70
2023-03-03T21:52:01.462Z,49.88
2023-03-03T21:54:07.008Z,48.05
2023-03-03T21:56:15.757Z,50.28
2023-03-03T21:58:20.792Z,44.03
2023-03-03T22:00:26.996Z,45.40
2023-03-03T22:02:34.781Z,44.53
2023-03-03T22:04:41.081Z,41.35
2023-03-03T22:06:46.399Z,40.75
2023-03-03T22:08:51.339Z,44.85
2023-03-03T22:10:56.652Z,40.88
2023-03-03T22:13:05.010Z,39.97
2023-03-03T22:15:11.151Z,39.85
2023-03-03T22:17:16.462Z,40.42
2023-03-03T22:19:21.478Z,37.88
2023-03-03T22:21:26.803Z,38.30
2023-03-03T22:23:32.113Z,35.85
2023-03-03T22:25:37.050Z,32.10
2023-03-03T22:27:42.369Z,36.15
2023-03-03T22:29:49.954Z,34.90
2023-03-03T22:31:57.272Z,32.42
2023-03-03T22:34:02.488Z,35.70
2023-03-03T22:36:08.779Z,32.22
2023-03-03T22:38:13.720Z,32.78
2023-03-03T22:40:19.282Z,32.55
2023-03-03T22:42:25.099Z,35.13
2023-03-03T22:44:30.004Z,33.20
2023-03-03T22:46:37.586Z,34.33
2023-03-03T22:48:42.814Z,34.97
2023-03-03T22:50:47.767Z,29.55
2023-03-03T22:52:54.900Z,34.97
2023-03-03T22:55:00.443Z,36.03
2023-03-03T22:57:06.039Z,32.95
2023-03-03T22:59:11.091Z,30.77
2023-03-03T23:01:16.055Z,35.75
2023-03-03T23:03:23.902Z,32.40
2023-03-03T23:05:29.906Z,35.42
2023-03-03T23:07:35.728Z,35.67
2023-03-03T23:09:40.661Z,31.35
2023-03-03T23:11:46.281Z,38.13
2023-03-03T23:13:51.311Z,33.10
2023-03-03T23:16:00.469Z,33.80
2023-03-03T23:18:05.877Z,40.08
2023-03-03T23:20:16.564Z,34.70
2023-03-03T23:22:22.206Z,33.40
2023-03-03T23:24:28.000Z,34.30
2023-03-03T23:26:33.457Z,34.05
2023-03-03T23:28:38.922Z,33.13
2023-03-03T23:30:43.956Z,29.23
2023-03-03T23:32:50.338Z,30.85
2023-03-03T23:34:56.366Z,30.42
2023-03-03T23:37:04.263Z,33.00
2023-03-03T23:39:12.217Z,31.38
2023-03-03T23:41:20.749Z,30.67
2023-03-03T23:43:25.761Z,35.20
2023-03-03T23:45:30.812Z,34.63
2023-03-03T23:47:39.035Z,34.95
2023-03-03T23:51:51.273Z,34.13
2023-03-03T23:53:59.666Z,39.65
2023-03-03T23:56:04.808Z,34.85
2023-03-03T23:58:11.270Z,31.63
